Time;durP1;ratioP1;P1;durP2;ratioP2;P2;SDS_P1;SDS_P2;PMS_P1;PMS_P2;Temp;Humidity;BMP_temperature;BMP_pressure;BME280_temperature;BME280_humidity;BME280_pressure;Samples;Min_cycle;Max_cycle;Signal;HPM_P1;HPM_P2
2023/08/07 00:00:52;;;;;;;9.30;1.27;;;13.10;99.90;;;;;;5027571;28;20577;-66
2023/08/07 00:03:18;;;;;;;1.00;0.68;;;13.20;99.90;;;;;;5011047;28;20034;-65
2023/08/07 00:05:48;;;;;;;1.42;0.77;;;13.20;99.90;;;;;;5012362;28;20037;-65
2023/08/07 00:08:14;;;;;;;2.60;0.90;;;13.20;99.90;;;;;;5027101;28;20073;-65
2023/08/07 00:10:40;;;;;;;1.02;0.90;;;13.20;99.90;;;;;;5026740;28;20041;-65
2023/08/07 00:13:06;;;;;;;2.70;0.85;;;13.30;99.90;;;;;;5009826;28;20041;-64
2023/08/07 00:15:33;;;;;;;1.35;0.75;;;13.30;99.90;;;;;;5034452;28;20039;-67
2023/08/07 00:17:59;;;;;;;3.00;0.88;;;13.30;99.90;;;;;;5043496;28;20055;-65
2023/08/07 00:20:25;;;;;;;10.35;1.25;;;13.30;99.90;;;;;;5041830;28;20600;-65
2023/08/07 00:22:51;;;;;;;1.48;0.90;;;13.40;99.90;;;;;;5050910;28;20124;-65
2023/08/07 00:25:17;;;;;;;1.60;0.45;;;13.40;99.90;;;;;;5051288;28;20103;-65
2023/08/07 00:27:43;;;;;;;2.40;0.70;;;13.40;99.90;;;;;;5051294;28;20029;-66
2023/08/07 00:30:10;;;;;;;1.08;0.68;;;13.50;99.90;;;;;;5051289;28;20040;-66
2023/08/07 00:32:35;;;;;;;4.10;1.98;;;13.50;99.90;;;;;;5050088;28;20033;-66
2023/08/07 00:35:01;;;;;;;2.10;0.85;;;13.40;99.90;;;;;;5050857;28;20392;-66
2023/08/07 00:37:27;;;;;;;2.67;0.73;;;13.40;99.90;;;;;;5049825;28;20362;-66
2023/08/07 00:39:52;;;;;;;1.98;0.75;;;13.40;99.90;;;;;;5051120;28;20029;-66
2023/08/07 00:42:18;;;;;;;3.28;0.65;;;13.50;99.90;;;;;;5050182;28;20107;-66
2023/08/07 00:44:44;;;;;;;1.55;1.40;;;13.50;99.90;;;;;;5048368;28;20025;-66
2023/08/07 00:47:10;;;;;;;0.68;0.43;;;13.50;99.90;;;;;;5031122;28;20037;-65
2023/08/07 00:49:36;;;;;;;3.28;0.65;;;13.50;99.90;;;;;;5029800;28;20386;-67
2023/08/07 00:52:02;;;;;;;4.82;1.02;;;13.50;99.90;;;;;;5031013;28;20117;-64
2023/08/07 00:54:29;;;;;;;7.82;1.27;;;13.50;99.90;;;;;;5045304;28;20044;-67
2023/08/07 00:56:56;;;;;;;4.53;0.68;;;13.50;99.90;;;;;;5030772;28;20405;-67
2023/08/07 00:59:22;;;;;;;5.25;1.67;;;13.60;99.90;;;;;;5029597;28;20487;-67
2023/08/07 01:01:48;;;;;;;1.95;0.43;;;13.50;99.90;;;;;;5030738;28;20026;-67
2023/08/07 01:04:14;;;;;;;5.03;0.80;;;13.60;99.90;;;;;;5026433;28;20076;-66
2023/08/07 01:06:40;;;;;;;0.98;0.65;;;13.50;99.90;;;;;;5022644;28;20480;-66
2023/08/07 01:09:06;;;;;;;2.85;0.80;;;13.50;99.90;;;;;;5034042;28;20078;-67
2023/08/07 01:11:52;;;;;;;4.32;1.20;;;13.50;99.90;;;;;;5039754;28;20061;-67
2023/08/07 01:14:40;;;;;;;1.23;0.57;;;13.50;99.90;;;;;;5029871;28;20116;-66
2023/08/07 01:17:17;;;;;;;0.77;0.63;;;13.50;99.90;;;;;;5009607;28;20454;-64
2023/08/07 01:19:44;;;;;;;10.05;1.75;;;13.60;99.90;;;;;;5009676;28;20516;-65
2023/08/07 01:22:15;;;;;;;2.15;0.70;;;13.60;99.90;;;;;;5010658;28;20105;-68
2023/08/07 01:24:44;;;;;;;1.25;0.63;;;13.50;99.90;;;;;;5024017;28;20092;-65
2023/08/07 01:27:19;;;;;;;5.30;0.90;;;13.50;99.90;;;;;;5030676;28;20029;-65
2023/08/07 01:30:12;;;;;;;2.55;0.88;;;13.60;99.90;;;;;;5030380;28;20037;-65
2023/08/07 01:33:19;;;;;;;7.18;0.88;;;13.60;99.90;;;;;;5030380;28;20177;-67
2023/08/07 01:35:51;;;;;;;0.90;0.52;;;13.50;99.90;;;;;;5033972;28;20100;-66
2023/08/07 01:38:19;;;;;;;0.63;0.30;;;13.60;99.90;;;;;;5035773;28;20067;-67
2023/08/07 01:40:47;;;;;;;1.13;0.60;;;13.60;99.90;;;;;;5035521;28;20038;-67
2023/08/07 01:43:13;;;;;;;5.55;1.05;;;13.60;99.90;;;;;;5059238;28;20017;-66
2023/08/07 01:45:39;;;;;;;1.35;0.60;;;13.60;99.90;;;;;;5054221;28;20036;-66
2023/08/07 01:48:05;;;;;;;3.03;0.50;;;13.60;99.90;;;;;;5054091;28;20054;-66
2023/08/07 01:50:31;;;;;;;2.17;0.88;;;13.60;99.90;;;;;;5054244;28;20710;-66
2023/08/07 01:52:57;;;;;;;2.25;0.60;;;13.60;99.90;;;;;;5053516;28;20033;-66
2023/08/07 01:55:23;;;;;;;1.55;0.63;;;13.60;99.90;;;;;;5053837;28;20043;-66
2023/08/07 01:57:50;;;;;;;6.32;0.70;;;13.60;99.90;;;;;;5053918;28;20059;-66
2023/08/07 02:00:16;;;;;;;1.25;0.70;;;13.60;99.90;;;;;;5054093;28;20104;-66
2023/08/07 02:02:41;;;;;;;1.73;0.80;;;13.60;99.90;;;;;;5051868;28;20717;-65
2023/08/07 02:05:07;;;;;;;2.58;0.70;;;13.60;99.90;;;;;;5053913;28;20039;-66
2023/08/07 02:07:33;;;;;;;2.20;0.50;;;13.60;99.90;;;;;;5053769;28;20033;-67
2023/08/07 02:09:59;;;;;;;3.90;1.00;;;13.60;99.90;;;;;;5052726;28;20079;-67
2023/08/07 02:12:26;;;;;;;8.50;0.70;;;13.70;99.90;;;;;;5053321;28;20057;-67
2023/08/07 02:14:52;;;;;;;2.67;0.90;;;13.70;99.90;;;;;;5047410;28;20489;-67
2023/08/07 02:17:20;;;;;;;1.73;0.77;;;13.70;99.90;;;;;;5033684;28;20114;-67
2023/08/07 02:19:46;;;;;;;2.70;0.95;;;13.70;99.90;;;;;;5045298;28;20029;-67
2023/08/07 02:22:12;;;;;;;2.78;0.70;;;13.70;99.90;;;;;;5044876;28;20025;-67
2023/08/07 02:24:37;;;;;;;9.18;1.25;;;13.60;99.90;;;;;;5051633;28;20028;-67
2023/08/07 02:27:03;;;;;;;1.83;0.85;;;13.70;99.90;;;;;;5053716;28;20033;-66
2023/08/07 02:29:30;;;;;;;3.47;1.02;;;13.60;99.90;;;;;;5053338;28;20031;-67
2023/08/07 02:31:55;;;;;;;1.92;1.13;;;13.60;99.90;;;;;;5053541;28;20025;-67
2023/08/07 02:34:21;;;;;;;1.48;0.55;;;13.60;99.90;;;;;;5052380;28;20033;-67
2023/08/07 02:36:47;;;;;;;2.47;0.65;;;13.60;99.90;;;;;;5053099;28;20520;-67
2023/08/07 02:39:14;;;;;;;3.40;0.75;;;13.60;99.90;;;;;;5053219;28;20451;-67
2023/08/07 02:41:39;;;;;;;6.03;0.70;;;13.60;99.90;;;;;;5053456;28;20112;-67
2023/08/07 02:44:05;;;;;;;1.88;0.75;;;13.50;99.90;;;;;;5049722;28;20115;-66
2023/08/07 02:46:31;;;;;;;1.58;0.70;;;13.50;99.90;;;;;;5053257;28;20040;-67
2023/08/07 02:48:57;;;;;;;2.30;0.77;;;13.50;99.90;;;;;;5052983;28;20032;-67
2023/08/07 02:51:22;;;;;;;2.53;0.90;;;13.50;99.90;;;;;;5053096;28;20037;-67
2023/08/07 02:53:48;;;;;;;1.23;0.60;;;13.60;99.90;;;;;;5051900;28;20037;-67
2023/08/07 02:56:14;;;;;;;9.45;1.45;;;13.60;99.90;;;;;;5053215;28;20424;-67
2023/08/07 02:58:39;;;;;;;1.60;0.88;;;13.50;99.90;;;;;;5051451;28;20044;-66
2023/08/07 03:01:06;;;;;;;1.52;0.60;;;13.50;99.90;;;;;;5052821;28;20036;-67
2023/08/07 03:03:32;;;;;;;0.30;0.30;;;13.50;99.90;;;;;;5051869;28;20470;-67
2023/08/07 03:05:58;;;;;;;8.27;1.17;;;13.50;99.90;;;;;;5052563;28;20036;-67
2023/08/07 03:08:24;;;;;;;3.22;1.10;;;13.50;99.90;;;;;;5052647;28;20028;-67
2023/08/07 03:10:57;;;;;;;3.03;0.80;;;13.50;99.90;;;;;;5052496;28;20079;-67
2023/08/07 03:13:26;;;;;;;2.05;0.70;;;13.50;99.90;;;;;;5051799;28;20032;-67
2023/08/07 03:16:00;;;;;;;2.13;0.98;;;13.60;99.90;;;;;;5038689;28;20026;-67
2023/08/07 03:18:27;;;;;;;4.72;1.73;;;13.50;99.90;;;;;;5032481;28;20032;-67
2023/08/07 03:20:54;;;;;;;1.23;0.70;;;13.50;99.90;;;;;;5031272;28;20041;-66
2023/08/07 03:23:20;;;;;;;6.18;0.55;;;13.60;99.90;;;;;;5031823;28;20045;-66
2023/08/07 03:25:46;;;;;;;1.92;1.17;;;13.50;99.90;;;;;;5032376;28;20029;-66
2023/08/07 03:28:11;;;;;;;2.63;0.93;;;13.50;99.90;;;;;;5030973;28;20036;-66
2023/08/07 03:30:38;;;;;;;5.07;1.08;;;13.50;99.90;;;;;;5032146;28;20478;-67
2023/08/07 03:33:04;;;;;;;7.03;1.00;;;13.50;99.90;;;;;;5030182;28;20468;-65
2023/08/07 03:35:30;;;;;;;2.25;1.05;;;13.40;99.90;;;;;;5032083;28;20045;-66
2023/08/07 03:37:55;;;;;;;0.98;0.47;;;13.50;99.90;;;;;;5031885;28;20030;-65
2023/08/07 03:40:21;;;;;;;2.40;1.00;;;13.50;99.90;;;;;;5030787;28;20032;-66
2023/08/07 03:42:47;;;;;;;2.70;1.17;;;13.50;99.90;;;;;;5031255;28;20478;-65
2023/08/07 03:45:14;;;;;;;2.78;1.10;;;13.40;99.90;;;;;;5032039;28;20032;-66
2023/08/07 03:47:39;;;;;;;5.07;0.93;;;13.40;99.90;;;;;;5014272;28;20083;-66
2023/08/07 03:50:06;;;;;;;4.10;1.02;;;13.40;99.90;;;;;;5030393;28;20030;-67
2023/08/07 03:52:32;;;;;;;1.65;0.88;;;13.40;99.90;;;;;;5031165;28;20036;-66
2023/08/07 03:54:57;;;;;;;1.20;0.63;;;13.30;99.90;;;;;;5031543;28;20033;-66
2023/08/07 03:57:23;;;;;;;0.65;0.43;;;13.10;99.90;;;;;;5031798;28;20035;-66
2023/08/07 03:59:49;;;;;;;3.83;0.68;;;13.00;99.90;;;;;;5032156;28;20043;-66
2023/08/07 04:02:14;;;;;;;0.95;0.65;;;13.00;99.90;;;;;;5031383;28;20426;-66
2023/08/07 04:04:40;;;;;;;4.60;0.90;;;13.00;99.90;;;;;;5031249;28;20040;-65
2023/08/07 04:07:07;;;;;;;4.82;0.98;;;13.00;99.90;;;;;;5047213;28;20029;-66
2023/08/07 04:09:33;;;;;;;1.77;0.63;;;13.10;99.90;;;;;;5030643;28;20060;-66
2023/08/07 04:11:58;;;;;;;1.65;0.95;;;13.10;99.90;;;;;;5031694;28;20060;-66
2023/08/07 04:14:24;;;;;;;3.10;0.85;;;13.10;99.90;;;;;;5030374;28;20120;-66
2023/08/07 04:16:50;;;;;;;8.60;1.15;;;13.10;99.90;;;;;;5031513;28;20049;-66
2023/08/07 04:19:16;;;;;;;1.23;0.57;;;13.20;99.90;;;;;;5031324;28;20036;-67
2023/08/07 04:21:42;;;;;;;6.95;1.45;;;13.20;99.90;;;;;;5046801;28;20098;-66
2023/08/07 04:24:10;;;;;;;8.40;0.85;;;13.30;99.90;;;;;;5030654;28;20037;-66
2023/08/07 04:26:39;;;;;;;9.48;0.88;;;13.30;99.90;;;;;;5031348;28;20052;-66
2023/08/07 04:29:06;;;;;;;1.35;0.80;;;13.40;99.90;;;;;;5046348;28;20034;-66
2023/08/07 04:31:32;;;;;;;1.77;0.85;;;13.40;99.90;;;;;;5030187;28;20048;-66
2023/08/07 04:33:59;;;;;;;5.57;0.65;;;13.40;99.90;;;;;;5044891;22;20075;-71
2023/08/07 04:36:25;;;;;;;3.55;0.70;;;13.40;99.90;;;;;;5004325;28;20400;-71
2023/08/07 04:38:51;;;;;;;5.13;1.10;;;13.40;99.90;;;;;;5023059;28;20030;-71
2023/08/07 04:41:17;;;;;;;6.68;1.20;;;13.50;99.90;;;;;;5021694;28;20478;-72
2023/08/07 04:43:42;;;;;;;2.50;1.13;;;13.40;99.90;;;;;;5004935;28;20045;-70
2023/08/07 04:46:12;;;;;;;3.08;1.02;;;13.50;99.90;;;;;;5029090;28;20057;-70
2023/08/07 04:48:38;;;;;;;7.30;0.98;;;13.50;99.90;;;;;;5030462;28;20087;-70
2023/08/07 04:51:03;;;;;;;1.95;0.90;;;13.50;99.90;;;;;;5025059;28;20036;-71
2023/08/07 04:53:29;;;;;;;2.97;0.93;;;13.50;99.90;;;;;;5030206;28;20025;-71
2023/08/07 04:55:55;;;;;;;3.78;0.93;;;13.50;99.90;;;;;;5012990;28;20088;-71
2023/08/07 04:58:21;;;;;;;7.53;0.88;;;13.60;99.90;;;;;;4969186;28;20053;-71
2023/08/07 05:00:47;;;;;;;4.40;1.13;;;13.50;99.90;;;;;;5002687;28;20075;-72
2023/08/07 05:03:13;;;;;;;5.38;1.20;;;13.50;99.90;;;;;;5021051;28;20156;-71
2023/08/07 05:05:38;;;;;;;0.50;0.40;;;13.50;99.90;;;;;;5010647;28;20064;-72
2023/08/07 05:08:04;;;;;;;6.93;1.10;;;13.50;99.90;;;;;;5012072;28;20084;-71
2023/08/07 05:10:30;;;;;;;2.65;0.90;;;13.40;99.90;;;;;;5013106;28;20033;-72
2023/08/07 05:12:56;;;;;;;3.90;0.73;;;13.40;99.90;;;;;;5027857;28;20029;-72
2023/08/07 05:15:25;;;;;;;2.85;0.93;;;13.50;99.90;;;;;;5032634;28;20037;-71
2023/08/07 05:17:52;;;;;;;2.15;0.82;;;13.50;99.90;;;;;;5007893;28;20029;-72
2023/08/07 05:20:18;;;;;;;3.72;1.50;;;13.50;99.90;;;;;;5007989;28;20123;-72
2023/08/07 05:22:44;;;;;;;7.53;1.00;;;13.50;99.90;;;;;;5050007;28;20062;-73
2023/08/07 05:25:12;;;;;;;1.65;1.05;;;13.50;99.90;;;;;;5050150;28;20051;-73
2023/08/07 05:27:38;;;;;;;4.80;0.70;;;13.50;99.90;;;;;;5032346;28;20112;-72
2023/08/07 05:30:04;;;;;;;2.55;1.05;;;13.50;99.90;;;;;;5050591;28;20778;-73
2023/08/07 05:32:32;;;;;;;2.22;1.33;;;13.60;99.90;;;;;;5031560;28;20028;-72
2023/08/07 05:34:58;;;;;;;1.98;1.08;;;13.60;99.90;;;;;;5050229;28;20032;-72
2023/08/07 05:37:23;;;;;;;3.47;1.27;;;13.60;99.90;;;;;;5050381;28;20029;-71
2023/08/07 05:39:49;;;;;;;1.58;0.80;;;13.70;99.90;;;;;;5044444;28;20393;-72
2023/08/07 05:42:15;;;;;;;2.05;1.15;;;13.70;99.90;;;;;;5023542;28;20031;-71
2023/08/07 05:44:41;;;;;;;2.35;0.90;;;13.70;99.90;;;;;;4982851;28;20113;-72
2023/08/07 05:47:07;;;;;;;2.55;1.10;;;13.70;99.90;;;;;;5016370;28;20033;-71
2023/08/07 05:49:33;;;;;;;9.50;2.15;;;13.80;99.90;;;;;;5023130;28;20497;-71
2023/08/07 05:51:58;;;;;;;5.10;0.98;;;13.80;99.90;;;;;;5022099;28;20049;-71
2023/08/07 05:54:24;;;;;;;3.83;0.88;;;13.80;99.90;;;;;;5028772;28;20112;-71
2023/08/07 05:56:50;;;;;;;1.58;0.60;;;13.90;99.90;;;;;;5029679;28;20064;-71
2023/08/07 05:59:15;;;;;;;2.38;0.98;;;13.80;99.90;;;;;;5030028;28;20030;-71
2023/08/07 06:01:41;;;;;;;2.63;0.95;;;13.80;99.90;;;;;;5008387;28;20032;-71
2023/08/07 06:04:07;;;;;;;2.45;0.93;;;13.80;99.90;;;;;;5038790;28;20567;-71
2023/08/07 06:06:35;;;;;;;1.85;0.70;;;13.90;99.90;;;;;;5042441;28;20575;-71
2023/08/07 06:09:02;;;;;;;1.23;0.73;;;13.90;99.90;;;;;;5050075;28;20033;-71
2023/08/07 06:11:28;;;;;;;6.25;1.88;;;13.90;99.90;;;;;;5026263;28;20037;-70
2023/08/07 06:13:53;;;;;;;4.53;0.70;;;13.90;99.90;;;;;;5028429;28;20041;-71
2023/08/07 06:16:19;;;;;;;3.25;1.45;;;13.90;99.90;;;;;;5044685;28;20029;-71
2023/08/07 06:18:45;;;;;;;6.35;0.95;;;13.90;99.90;;;;;;5021698;28;20048;-69
2023/08/07 06:21:11;;;;;;;6.35;1.10;;;13.90;99.90;;;;;;5052760;28;20025;-73
2023/08/07 06:23:37;;;;;;;2.45;0.80;;;13.90;99.90;;;;;;5040601;28;20595;-71
2023/08/07 06:26:07;;;;;;;1.60;0.80;;;14.00;99.90;;;;;;5025390;28;20029;-72
2023/08/07 06:28:34;;;;;;;7.45;0.57;;;14.00;99.90;;;;;;5033618;28;20036;-71
2023/08/07 06:31:08;;;;;;;6.88;0.85;;;13.90;99.90;;;;;;5033372;28;20424;-73
2023/08/07 06:33:34;;;;;;;6.50;1.15;;;14.00;99.90;;;;;;5014606;28;20478;-72
2023/08/07 06:36:01;;;;;;;1.05;0.65;;;14.00;99.90;;;;;;5014240;28;20037;-71
2023/08/07 06:38:27;;;;;;;1.23;0.70;;;14.00;99.90;;;;;;5014766;28;20367;-72
2023/08/07 06:40:53;;;;;;;2.40;0.93;;;14.00;99.90;;;;;;5018685;28;20029;-72
2023/08/07 06:43:18;;;;;;;9.68;1.20;;;14.00;99.90;;;;;;5014531;28;20038;-74
2023/08/07 06:45:49;;;;;;;4.53;0.50;;;14.00;99.90;;;;;;5011709;28;20034;-72
2023/08/07 06:48:15;;;;;;;6.35;1.00;;;14.00;99.90;;;;;;5021191;28;20029;-75
2023/08/07 06:50:40;;;;;;;1.60;0.57;;;14.10;99.90;;;;;;5032735;28;20440;-74
2023/08/07 06:53:06;;;;;;;1.75;0.82;;;14.00;99.90;;;;;;5032273;28;20033;-74
2023/08/07 06:55:33;;;;;;;2.38;0.75;;;14.10;99.90;;;;;;5013855;28;20041;-75
2023/08/07 06:57:59;;;;;;;2.65;1.13;;;14.00;99.90;;;;;;5039033;28;20082;-76
2023/08/07 07:00:25;;;;;;;2.25;0.75;;;14.10;99.90;;;;;;5042156;28;20363;-74
2023/08/07 07:02:51;;;;;;;1.67;0.77;;;14.10;99.90;;;;;;5032140;28;20029;-75
2023/08/07 07:05:17;;;;;;;0.98;0.52;;;14.10;99.90;;;;;;5014661;28;20033;-74
2023/08/07 07:07:42;;;;;;;0.85;0.43;;;14.10;99.90;;;;;;5032401;28;20079;-77
2023/08/07 07:10:08;;;;;;;1.00;0.80;;;14.10;99.90;;;;;;5013580;28;20026;-74
2023/08/07 07:12:34;;;;;;;5.47;0.70;;;14.10;99.90;;;;;;5033079;28;20034;-74
2023/08/07 07:15:00;;;;;;;3.78;0.63;;;14.10;99.90;;;;;;5048182;28;20044;-75
2023/08/07 07:17:26;;;;;;;1.33;0.40;;;14.00;99.90;;;;;;5021425;28;20484;-75
2023/08/07 07:19:51;;;;;;;1.50;0.77;;;14.10;99.90;;;;;;5031794;28;20374;-75
2023/08/07 07:22:17;;;;;;;7.30;1.73;;;14.00;99.90;;;;;;5039500;28;20040;-75
2023/08/07 07:24:43;;;;;;;1.15;0.57;;;14.00;99.90;;;;;;5025696;28;20390;-73
2023/08/07 07:27:08;;;;;;;4.18;1.13;;;14.00;99.90;;;;;;5015507;28;20084;-74
2023/08/07 07:29:34;;;;;;;2.58;0.85;;;14.00;99.90;;;;;;5043052;28;20064;-73
2023/08/07 07:32:00;;;;;;;2.72;0.65;;;13.90;99.90;;;;;;5041345;28;20539;-74
2023/08/07 07:34:26;;;;;;;1.83;0.70;;;14.00;99.90;;;;;;5050985;28;20063;-74
2023/08/07 07:36:53;;;;;;;2.25;0.85;;;13.90;99.90;;;;;;5022779;28;20390;-74
2023/08/07 07:39:19;;;;;;;1.58;0.80;;;13.90;99.90;;;;;;5034631;28;20095;-74
2023/08/07 07:41:45;;;;;;;2.40;0.80;;;13.90;99.90;;;;;;5019593;28;20025;-74
2023/08/07 07:44:11;;;;;;;4.60;1.38;;;13.90;99.90;;;;;;5033030;28;20036;-75
2023/08/07 07:46:37;;;;;;;0.90;0.70;;;13.80;99.90;;;;;;5033455;28;20468;-75
2023/08/07 07:49:04;;;;;;;2.05;0.70;;;13.70;99.90;;;;;;5035786;28;20076;-77
2023/08/07 07:51:31;;;;;;;2.25;0.85;;;13.50;99.90;;;;;;5032918;28;20044;-76
2023/08/07 07:53:58;;;;;;;2.28;0.98;;;13.50;99.90;;;;;;5043808;28;20036;-75
2023/08/07 07:56:24;;;;;;;1.90;1.20;;;13.40;99.90;;;;;;5043914;28;20064;-75
2023/08/07 07:58:50;;;;;;;4.95;1.23;;;13.40;99.90;;;;;;5020754;28;20084;-76
2023/08/07 08:01:17;;;;;;;6.32;1.30;;;13.40;99.90;;;;;;5032094;28;20052;-75
2023/08/07 08:03:43;;;;;;;2.30;1.05;;;13.40;99.90;;;;;;5033482;28;20036;-75
2023/08/07 08:06:12;;;;;;;2.60;1.30;;;13.40;99.90;;;;;;5027694;28;20029;-75
2023/08/07 08:08:37;;;;;;;2.90;1.30;;;13.50;99.90;;;;;;5025541;28;20041;-74
2023/08/07 08:11:03;;;;;;;1.92;0.93;;;13.50;99.90;;;;;;5049016;28;20120;-74
2023/08/07 08:13:30;;;;;;;2.45;0.80;;;13.60;99.90;;;;;;5012671;28;20393;-74
2023/08/07 08:15:55;;;;;;;1.85;0.80;;;13.70;99.90;;;;;;5031320;28;20029;-75
2023/08/07 08:18:21;;;;;;;1.17;0.75;;;13.70;99.90;;;;;;5013215;28;20025;-74
2023/08/07 08:20:47;;;;;;;3.97;1.05;;;13.70;99.90;;;;;;5031051;28;20025;-74
2023/08/07 08:23:12;;;;;;;2.55;0.77;;;13.80;99.90;;;;;;5012658;28;20037;-75
2023/08/07 08:25:39;;;;;;;3.05;0.88;;;13.80;99.90;;;;;;5013172;28;20084;-74
2023/08/07 08:28:04;;;;;;;1.38;0.60;;;13.90;99.90;;;;;;5030907;28;20041;-74
2023/08/07 08:30:30;;;;;;;5.60;1.60;;;13.80;99.90;;;;;;5030620;28;20045;-74
2023/08/07 08:32:56;;;;;;;1.80;0.88;;;13.90;99.90;;;;;;5030314;28;20478;-75
2023/08/07 08:35:22;;;;;;;1.58;0.60;;;13.90;99.90;;;;;;5017962;28;20397;-75
2023/08/07 08:37:48;;;;;;;4.47;0.90;;;14.00;99.90;;;;;;5026017;28;20037;-74
2023/08/07 08:40:17;;;;;;;9.07;0.82;;;14.00;99.90;;;;;;5010909;28;20033;-74
2023/08/07 08:42:47;;;;;;;2.53;1.35;;;13.90;99.90;;;;;;5024684;28;20068;-74
2023/08/07 08:45:14;;;;;;;3.13;0.85;;;14.00;99.90;;;;;;5013185;28;20091;-74
2023/08/07 08:47:45;;;;;;;4.88;0.60;;;14.10;99.90;;;;;;5012586;28;20033;-74
2023/08/07 08:50:15;;;;;;;5.63;1.17;;;14.10;99.90;;;;;;5013429;28;20075;-74
2023/08/07 08:52:45;;;;;;;1.40;0.80;;;14.10;99.90;;;;;;5012225;28;20041;-73
2023/08/07 08:55:13;;;;;;;1.20;0.60;;;14.10;99.90;;;;;;5025728;28;20022;-73
2023/08/07 08:57:40;;;;;;;0.93;0.57;;;14.00;99.90;;;;;;5008277;28;20033;-73
2023/08/07 09:00:20;;;;;;;1.02;0.77;;;14.00;99.90;;;;;;4993052;28;20075;-72
2023/08/07 09:02:48;;;;;;;5.38;0.70;;;13.90;99.90;;;;;;4995477;28;20037;-72
2023/08/07 09:05:20;;;;;;;2.53;1.40;;;13.90;99.90;;;;;;4996514;28;20084;-73
2023/08/07 09:07:48;;;;;;;6.53;1.52;;;14.10;99.90;;;;;;5029370;28;20029;-73
2023/08/07 09:10:16;;;;;;;3.13;1.20;;;14.10;99.90;;;;;;5029660;28;20021;-74
2023/08/07 09:12:53;;;;;;;2.08;1.10;;;14.20;99.90;;;;;;5034514;28;20022;-74
2023/08/07 09:15:21;;;;;;;5.97;1.73;;;14.20;99.90;;;;;;5006339;28;20030;-74
2023/08/07 09:17:49;;;;;;;1.98;0.98;;;14.30;99.90;;;;;;5026419;28;20053;-75
2023/08/07 09:20:15;;;;;;;2.80;0.82;;;14.30;99.90;;;;;;5019858;28;20032;-77
2023/08/07 09:22:41;;;;;;;1.95;0.93;;;14.30;99.90;;;;;;5032769;28;20029;-67
2023/08/07 09:25:09;;;;;;;3.05;1.10;;;14.30;99.90;;;;;;5021190;28;20488;-68
2023/08/07 09:27:39;;;;;;;8.05;1.95;;;14.30;99.90;;;;;;5033867;28;20037;-76
2023/08/07 09:30:10;;;;;;;2.13;1.00;;;14.30;99.90;;;;;;5014949;28;20148;-75
2023/08/07 09:32:36;;;;;;;5.40;2.37;;;14.30;99.90;;;;;;5036855;28;20033;-74
2023/08/07 09:35:06;;;;;;;11.30;2.05;;;14.10;99.90;;;;;;5013330;28;20288;-75
2023/08/07 09:37:32;;;;;;;5.82;1.63;;;14.10;99.90;;;;;;5011092;28;20021;-74
2023/08/07 09:40:01;;;;;;;5.15;2.00;;;14.00;99.90;;;;;;5020389;28;20060;-76
2023/08/07 09:42:32;;;;;;;2.47;1.10;;;14.00;99.90;;;;;;5034883;28;20094;-74
2023/08/07 09:45:00;;;;;;;4.90;1.98;;;14.00;99.90;;;;;;5029793;28;20052;-75
2023/08/07 09:47:25;;;;;;;7.80;2.20;;;13.90;99.90;;;;;;5029807;28;20436;-75
2023/08/07 09:49:55;;;;;;;4.65;1.50;;;14.00;99.90;;;;;;5012179;28;20041;-75
2023/08/07 09:52:21;;;;;;;7.93;1.63;;;13.90;99.90;;;;;;5011375;28;20083;-74
2023/08/07 09:54:47;;;;;;;2.97;0.77;;;13.90;99.90;;;;;;5015955;28;20108;-77
2023/08/07 09:57:14;;;;;;;2.00;0.80;;;13.90;99.90;;;;;;5033317;28;20535;-76
2023/08/07 09:59:41;;;;;;;3.88;0.90;;;13.90;99.90;;;;;;4998473;28;20058;-76
2023/08/07 10:02:08;;;;;;;2.22;1.20;;;13.90;99.90;;;;;;5015727;28;20033;-76
2023/08/07 10:04:35;;;;;;;2.20;0.80;;;13.90;99.90;;;;;;5015084;28;20033;-74
2023/08/07 10:07:01;;;;;;;2.72;1.10;;;14.00;99.90;;;;;;5015679;28;20044;-78
2023/08/07 10:09:27;;;;;;;4.10;0.68;;;14.00;99.90;;;;;;5033541;28;20108;-76
2023/08/07 10:11:54;;;;;;;2.05;0.85;;;14.00;99.90;;;;;;5015304;28;20121;-76
2023/08/07 10:14:22;;;;;;;9.93;0.95;;;14.00;99.90;;;;;;5014842;28;20034;-79
2023/08/07 10:16:49;;;;;;;1.67;0.80;;;14.00;99.90;;;;;;5015488;28;20048;-73
2023/08/07 10:19:15;;;;;;;0.93;0.68;;;14.00;99.90;;;;;;5015612;28;20035;-73
2023/08/07 10:21:42;;;;;;;0.98;0.70;;;14.00;99.90;;;;;;5015618;28;20021;-76
2023/08/07 10:24:10;;;;;;;2.85;1.00;;;13.90;99.90;;;;;;5014686;28;20041;-76
2023/08/07 10:26:42;;;;;;;1.05;0.73;;;14.00;99.90;;;;;;5015386;28;20025;-75
2023/08/07 10:29:14;;;;;;;2.08;0.98;;;14.00;99.90;;;;;;5015601;28;20481;-74
2023/08/07 10:31:42;;;;;;;6.25;1.95;;;14.10;99.90;;;;;;5015794;28;20056;-76
2023/08/07 10:34:08;;;;;;;3.88;1.40;;;14.20;99.90;;;;;;5020021;28;20116;-75
2023/08/07 10:36:35;;;;;;;5.68;2.35;;;14.20;99.90;;;;;;5024397;28;20478;-75
2023/08/07 10:39:10;;;;;;;4.68;2.15;;;14.30;99.90;;;;;;5042369;28;20095;-76
2023/08/07 10:41:47;;;;;;;7.80;3.25;;;14.40;99.90;;;;;;5025904;28;20435;-77
2023/08/07 10:44:29;;;;;;;7.22;3.17;;;14.40;99.90;;;;;;4995472;28;20034;-77
2023/08/07 10:46:57;;;;;;;8.23;3.38;;;14.50;99.90;;;;;;5025360;28;20034;-78
2023/08/07 10:49:37;;;;;;;5.07;2.10;;;14.50;99.90;;;;;;5013262;28;20037;-77
2023/08/07 10:52:17;;;;;;;6.75;2.45;;;14.60;99.90;;;;;;5032195;28;20029;-76
2023/08/07 10:54:49;;;;;;;6.72;1.90;;;14.50;99.90;;;;;;5039138;28;20029;-76
2023/08/07 10:57:18;;;;;;;4.38;1.77;;;14.50;99.90;;;;;;5051693;28;20051;-77
2023/08/07 10:59:55;;;;;;;5.60;1.80;;;14.50;99.90;;;;;;5052190;28;20516;-78
2023/08/07 11:02:26;;;;;;;3.42;1.45;;;14.40;99.90;;;;;;5051512;28;20083;-76
2023/08/07 11:04:53;;;;;;;3.03;1.20;;;14.50;99.90;;;;;;5033246;28;20033;-78
2023/08/07 11:07:27;;;;;;;2.10;1.05;;;14.50;99.90;;;;;;5052156;28;20099;-78
2023/08/07 11:09:58;;;;;;;4.10;1.20;;;14.60;99.90;;;;;;5034266;28;20397;-78
2023/08/07 11:12:28;;;;;;;10.43;1.58;;;14.60;99.90;;;;;;5037757;28;20378;-78
2023/08/07 11:14:58;;;;;;;5.90;1.75;;;14.60;99.90;;;;;;5032140;28;20033;-76
2023/08/07 11:17:28;;;;;;;4.10;2.22;;;14.60;99.90;;;;;;5031676;28;20026;-79
2023/08/07 11:19:56;;;;;;;5.30;2.13;;;14.70;99.90;;;;;;5014336;28;20026;-78
2023/08/07 11:22:22;;;;;;;3.17;1.60;;;14.80;99.90;;;;;;5031124;28;20057;-79
2023/08/07 11:24:48;;;;;;;2.70;1.48;;;14.80;99.90;;;;;;5001259;28;20446;-79
2023/08/07 11:27:13;;;;;;;4.88;1.70;;;14.70;99.90;;;;;;5024161;28;20029;-79
2023/08/07 11:29:39;;;;;;;4.97;1.90;;;14.90;99.90;;;;;;5046407;28;20064;-79
2023/08/07 11:32:06;;;;;;;6.95;1.52;;;14.90;99.90;;;;;;5051715;28;20072;-79
2023/08/07 11:34:32;;;;;;;5.93;0.95;;;15.10;99.90;;;;;;5022441;28;20061;-79
2023/08/07 11:36:58;;;;;;;3.95;1.05;;;15.20;99.90;;;;;;4994591;28;20045;-79
2023/08/07 11:39:24;;;;;;;2.03;0.85;;;15.40;99.90;;;;;;4994706;28;20072;-79
2023/08/07 11:41:52;;;;;;;3.05;0.98;;;15.40;99.90;;;;;;5002221;28;20539;-80
2023/08/07 11:44:18;;;;;;;4.43;0.95;;;15.40;99.90;;;;;;5029586;28;20025;-79
2023/08/07 11:46:45;;;;;;;1.33;0.82;;;15.40;99.90;;;;;;5031290;28;20033;-76
2023/08/07 11:49:12;;;;;;;2.42;1.10;;;15.50;99.90;;;;;;5039241;28;20048;-76
2023/08/07 11:51:38;;;;;;;5.32;1.95;;;15.40;99.90;;;;;;5043001;28;20021;-76
2023/08/07 11:54:04;;;;;;;4.88;1.02;;;15.60;99.90;;;;;;5024198;28;20032;-77
2023/08/07 11:56:30;;;;;;;5.05;0.80;;;15.40;99.90;;;;;;5033339;28;20029;-76
2023/08/07 11:58:57;;;;;;;2.55;0.95;;;15.40;99.90;;;;;;5050878;28;20497;-75
2023/08/07 12:01:26;;;;;;;4.47;1.08;;;15.40;99.90;;;;;;5016387;28;20100;-68
2023/08/07 12:04:10;;;;;;;4.35;0.90;;;15.30;99.90;;;;;;5049043;28;20056;-72
2023/08/07 12:06:42;;;;;;;3.08;1.27;;;15.20;99.90;;;;;;5049100;28;20041;-72
2023/08/07 12:09:12;;;;;;;1.90;1.02;;;15.30;99.90;;;;;;5029969;28;20250;-72
2023/08/07 12:11:38;;;;;;;2.90;1.23;;;15.10;99.90;;;;;;5015916;28;20107;-72
2023/08/07 12:14:04;;;;;;;9.63;1.02;;;15.10;99.90;;;;;;5035897;28;20108;-72
2023/08/07 12:16:34;;;;;;;2.47;0.88;;;15.10;99.90;;;;;;5040215;28;20123;-74
2023/08/07 12:19:01;;;;;;;5.38;0.80;;;15.20;99.90;;;;;;5030716;28;20117;-72
2023/08/07 12:21:28;;;;;;;5.45;1.25;;;15.20;99.90;;;;;;5032949;28;20063;-75
2023/08/07 12:23:58;;;;;;;2.15;1.00;;;15.20;99.90;;;;;;5022752;28;20036;-74
2023/08/07 12:26:24;;;;;;;4.55;1.52;;;15.20;99.90;;;;;;5022032;28;20060;-74
2023/08/07 12:28:50;;;;;;;3.83;1.75;;;15.20;99.90;;;;;;5024087;28;20523;-74
2023/08/07 12:31:17;;;;;;;9.85;1.88;;;15.30;99.90;;;;;;5042046;28;20049;-74
2023/08/07 12:33:43;;;;;;;4.45;1.52;;;15.30;99.90;;;;;;5049909;28;20036;-73
2023/08/07 12:36:10;;;;;;;8.43;1.98;;;15.20;99.90;;;;;;5032563;28;20036;-74
2023/08/07 12:38:36;;;;;;;3.10;1.45;;;15.30;99.90;;;;;;5046318;28;20025;-74
2023/08/07 12:41:03;;;;;;;2.83;1.27;;;15.30;99.90;;;;;;5031438;28;20104;-74
2023/08/07 12:43:29;;;;;;;5.03;1.45;;;15.20;99.90;;;;;;5001859;28;20029;-74
2023/08/07 12:45:54;;;;;;;3.78;1.50;;;15.20;99.90;;;;;;5035339;28;20444;-75